sensor_id;sensor_type;location;lat;lon;timestamp;P1;durP1;ratioP1;P2;durP2;ratioP2
14381;SDS011;7275;50.328;8.720;2023-12-07T00:02:25;10.60;;;8.60;;
14381;SDS011;7275;50.328;8.720;2023-12-07T00:04:53;10.10;;;8.37;;
14381;SDS011;7275;50.328;8.720;2023-12-07T00:07:20;9.37;;;8.13;;
14381;SDS011;7275;50.328;8.720;2023-12-07T00:09:48;11.07;;;8.50;;
14381;SDS011;7275;50.328;8.720;2023-12-07T00:12:17;10.77;;;8.67;;
14381;SDS011;7275;50.328;8.720;2023-12-07T00:14:45;10.03;;;8.80;;
14381;SDS011;7275;50.328;8.720;2023-12-07T00:17:13;10.33;;;8.53;;
14381;SDS011;7275;50.328;8.720;2023-12-07T00:19:40;11.40;;;8.43;;
14381;SDS011;7275;50.328;8.720;2023-12-07T00:22:08;10.60;;;8.60;;
14381;SDS011;7275;50.328;8.720;2023-12-07T00:24:36;9.80;;;8.50;;
14381;SDS011;7275;50.328;8.720;2023-12-07T00:27:03;13.67;;;8.77;;
14381;SDS011;7275;50.328;8.720;2023-12-07T00:29:32;10.73;;;8.90;;
14381;SDS011;7275;50.328;8.720;2023-12-07T00:32:00;12.03;;;8.60;;
14381;SDS011;7275;50.328;8.720;2023-12-07T00:34:29;10.47;;;8.40;;
14381;SDS011;7275;50.328;8.720;2023-12-07T00:36:57;11.47;;;9.40;;
14381;SDS011;7275;50.328;8.720;2023-12-07T00:39:25;11.00;;;9.13;;
14381;SDS011;7275;50.328;8.720;2023-12-07T00:41:52;10.60;;;8.40;;
14381;SDS011;7275;50.328;8.720;2023-12-07T00:44:20;9.80;;;8.60;;
14381;SDS011;7275;50.328;8.720;2023-12-07T00:46:49;13.23;;;8.70;;
14381;SDS011;7275;50.328;8.720;2023-12-07T00:49:16;10.97;;;8.30;;
14381;SDS011;7275;50.328;8.720;2023-12-07T00:51:44;12.03;;;9.10;;
14381;SDS011;7275;50.328;8.720;2023-12-07T00:54:12;10.00;;;8.87;;
14381;SDS011;7275;50.328;8.720;2023-12-07T00:56:39;10.53;;;8.90;;
14381;SDS011;7275;50.328;8.720;2023-12-07T00:59:07;10.17;;;8.57;;
14381;SDS011;7275;50.328;8.720;2023-12-07T01:01:34;10.00;;;8.57;;
14381;SDS011;7275;50.328;8.720;2023-12-07T01:04:06;11.77;;;8.73;;
14381;SDS011;7275;50.328;8.720;2023-12-07T01:06:34;10.60;;;9.03;;
14381;SDS011;7275;50.328;8.720;2023-12-07T01:09:02;10.03;;;8.33;;
14381;SDS011;7275;50.328;8.720;2023-12-07T01:11:30;9.33;;;7.17;;
14381;SDS011;7275;50.328;8.720;2023-12-07T01:13:57;8.67;;;7.53;;
14381;SDS011;7275;50.328;8.720;2023-12-07T01:16:25;8.17;;;7.30;;
14381;SDS011;7275;50.328;8.720;2023-12-07T01:18:52;11.00;;;7.50;;
14381;SDS011;7275;50.328;8.720;2023-12-07T01:21:21;10.60;;;7.50;;
14381;SDS011;7275;50.328;8.720;2023-12-07T01:23:49;9.70;;;7.37;;
14381;SDS011;7275;50.328;8.720;2023-12-07T01:26:31;8.90;;;7.23;;
14381;SDS011;7275;50.328;8.720;2023-12-07T01:28:59;8.53;;;7.37;;
14381;SDS011;7275;50.328;8.720;2023-12-07T01:31:26;9.17;;;7.13;;
14381;SDS011;7275;50.328;8.720;2023-12-07T01:33:54;9.67;;;7.30;;
14381;SDS011;7275;50.328;8.720;2023-12-07T01:36:23;7.57;;;6.80;;
14381;SDS011;7275;50.328;8.720;2023-12-07T01:38:51;8.20;;;6.70;;
14381;SDS011;7275;50.328;8.720;2023-12-07T01:41:18;8.57;;;6.90;;
14381;SDS011;7275;50.328;8.720;2023-12-07T01:43:46;9.30;;;6.43;;
14381;SDS011;7275;50.328;8.720;2023-12-07T01:46:14;8.77;;;6.93;;
14381;SDS011;7275;50.328;8.720;2023-12-07T01:48:44;8.43;;;6.40;;
14381;SDS011;7275;50.328;8.720;2023-12-07T01:51:14;7.57;;;6.40;;
14381;SDS011;7275;50.328;8.720;2023-12-07T01:53:46;9.13;;;6.57;;
14381;SDS011;7275;50.328;8.720;2023-12-07T01:56:15;8.40;;;5.90;;
14381;SDS011;7275;50.328;8.720;2023-12-07T01:58:43;7.87;;;6.00;;
14381;SDS011;7275;50.328;8.720;2023-12-07T02:01:11;8.87;;;6.50;;
14381;SDS011;7275;50.328;8.720;2023-12-07T02:03:39;6.70;;;6.00;;
14381;SDS011;7275;50.328;8.720;2023-12-07T02:06:07;9.20;;;6.67;;
14381;SDS011;7275;50.328;8.720;2023-12-07T02:08:36;8.30;;;6.40;;
14381;SDS011;7275;50.328;8.720;2023-12-07T02:11:09;9.73;;;6.53;;
14381;SDS011;7275;50.328;8.720;2023-12-07T02:13:37;6.83;;;6.07;;
14381;SDS011;7275;50.328;8.720;2023-12-07T02:16:07;8.90;;;6.20;;
14381;SDS011;7275;50.328;8.720;2023-12-07T02:18:44;8.13;;;6.27;;
14381;SDS011;7275;50.328;8.720;2023-12-07T02:21:18;8.70;;;6.13;;
14381;SDS011;7275;50.328;8.720;2023-12-07T02:23:53;8.90;;;6.60;;
14381;SDS011;7275;50.328;8.720;2023-12-07T02:28:57;7.20;;;6.37;;
14381;SDS011;7275;50.328;8.720;2023-12-07T02:31:24;8.80;;;6.20;;
14381;SDS011;7275;50.328;8.720;2023-12-07T02:33:52;9.17;;;6.40;;
14381;SDS011;7275;50.328;8.720;2023-12-07T02:36:20;8.03;;;6.07;;
14381;SDS011;7275;50.328;8.720;2023-12-07T02:38:51;7.93;;;5.87;;
14381;SDS011;7275;50.328;8.720;2023-12-07T02:41:23;6.93;;;6.17;;
14381;SDS011;7275;50.328;8.720;2023-12-07T02:43:53;8.97;;;5.90;;
14381;SDS011;7275;50.328;8.720;2023-12-07T02:46:21;10.50;;;5.77;;
14381;SDS011;7275;50.328;8.720;2023-12-07T02:48:48;7.40;;;6.00;;
14381;SDS011;7275;50.328;8.720;2023-12-07T02:51:16;7.37;;;6.07;;
14381;SDS011;7275;50.328;8.720;2023-12-07T02:53:44;7.40;;;5.57;;
14381;SDS011;7275;50.328;8.720;2023-12-07T02:56:12;6.97;;;6.20;;
14381;SDS011;7275;50.328;8.720;2023-12-07T02:58:39;7.80;;;6.70;;
14381;SDS011;7275;50.328;8.720;2023-12-07T03:01:08;8.27;;;6.83;;
14381;SDS011;7275;50.328;8.720;2023-12-07T03:03:36;7.33;;;6.10;;
14381;SDS011;7275;50.328;8.720;2023-12-07T03:06:05;6.97;;;6.00;;
14381;SDS011;7275;50.328;8.720;2023-12-07T03:08:33;6.37;;;5.67;;
14381;SDS011;7275;50.328;8.720;2023-12-07T03:11:00;8.40;;;6.27;;
14381;SDS011;7275;50.328;8.720;2023-12-07T03:13:28;7.57;;;5.93;;
14381;SDS011;7275;50.328;8.720;2023-12-07T03:15:56;7.20;;;5.90;;
14381;SDS011;7275;50.328;8.720;2023-12-07T03:18:25;8.20;;;6.00;;
14381;SDS011;7275;50.328;8.720;2023-12-07T03:20:53;8.00;;;6.90;;
14381;SDS011;7275;50.328;8.720;2023-12-07T03:23:20;10.00;;;6.50;;
14381;SDS011;7275;50.328;8.720;2023-12-07T03:25:48;9.67;;;6.50;;
14381;SDS011;7275;50.328;8.720;2023-12-07T03:28:16;8.80;;;6.90;;
14381;SDS011;7275;50.328;8.720;2023-12-07T03:30:43;8.17;;;6.43;;
14381;SDS011;7275;50.328;8.720;2023-12-07T03:33:11;7.07;;;6.37;;
14381;SDS011;7275;50.328;8.720;2023-12-07T03:35:40;8.40;;;7.23;;
14381;SDS011;7275;50.328;8.720;2023-12-07T03:38:08;8.53;;;7.27;;
14381;SDS011;7275;50.328;8.720;2023-12-07T03:40:36;8.73;;;7.43;;
14381;SDS011;7275;50.328;8.720;2023-12-07T03:43:04;12.10;;;7.83;;
14381;SDS011;7275;50.328;8.720;2023-12-07T03:45:32;9.33;;;7.57;;
14381;SDS011;7275;50.328;8.720;2023-12-07T03:48:00;10.27;;;7.40;;
14381;SDS011;7275;50.328;8.720;2023-12-07T03:50:27;8.70;;;7.37;;
14381;SDS011;7275;50.328;8.720;2023-12-07T03:52:56;11.67;;;6.90;;
14381;SDS011;7275;50.328;8.720;2023-12-07T03:55:24;8.30;;;6.27;;
14381;SDS011;7275;50.328;8.720;2023-12-07T03:57:51;8.63;;;6.80;;
14381;SDS011;7275;50.328;8.720;2023-12-07T04:00:19;7.60;;;6.30;;
14381;SDS011;7275;50.328;8.720;2023-12-07T04:02:47;8.97;;;6.47;;
14381;SDS011;7275;50.328;8.720;2023-12-07T04:05:15;7.67;;;6.10;;
14381;SDS011;7275;50.328;8.720;2023-12-07T04:07:43;7.77;;;6.13;;
14381;SDS011;7275;50.328;8.720;2023-12-07T04:10:12;7.60;;;6.60;;
14381;SDS011;7275;50.328;8.720;2023-12-07T04:12:39;11.17;;;6.97;;
14381;SDS011;7275;50.328;8.720;2023-12-07T04:15:07;9.60;;;6.87;;
14381;SDS011;7275;50.328;8.720;2023-12-07T04:17:35;8.20;;;7.17;;
14381;SDS011;7275;50.328;8.720;2023-12-07T04:20:03;7.63;;;6.87;;
14381;SDS011;7275;50.328;8.720;2023-12-07T04:22:32;7.60;;;6.30;;
14381;SDS011;7275;50.328;8.720;2023-12-07T04:24:59;8.77;;;6.60;;
14381;SDS011;7275;50.328;8.720;2023-12-07T04:27:28;7.47;;;6.33;;
14381;SDS011;7275;50.328;8.720;2023-12-07T04:29:56;9.73;;;7.00;;
14381;SDS011;7275;50.328;8.720;2023-12-07T04:32:24;11.40;;;7.27;;
14381;SDS011;7275;50.328;8.720;2023-12-07T04:34:52;11.27;;;7.17;;
14381;SDS011;7275;50.328;8.720;2023-12-07T04:37:20;10.10;;;7.80;;
14381;SDS011;7275;50.328;8.720;2023-12-07T04:39:48;8.40;;;7.23;;
14381;SDS011;7275;50.328;8.720;2023-12-07T04:42:17;10.10;;;7.20;;
14381;SDS011;7275;50.328;8.720;2023-12-07T04:44:45;9.47;;;7.40;;
14381;SDS011;7275;50.328;8.720;2023-12-07T04:47:13;9.03;;;7.20;;
14381;SDS011;7275;50.328;8.720;2023-12-07T04:49:41;10.63;;;7.63;;
14381;SDS011;7275;50.328;8.720;2023-12-07T04:52:09;9.50;;;7.53;;
14381;SDS011;7275;50.328;8.720;2023-12-07T04:54:36;8.53;;;7.10;;
14381;SDS011;7275;50.328;8.720;2023-12-07T04:57:04;8.93;;;7.00;;
14381;SDS011;7275;50.328;8.720;2023-12-07T04:59:32;9.37;;;7.50;;
14381;SDS011;7275;50.328;8.720;2023-12-07T05:02:04;9.90;;;7.03;;
14381;SDS011;7275;50.328;8.720;2023-12-07T05:04:32;10.20;;;7.87;;
14381;SDS011;7275;50.328;8.720;2023-12-07T05:07:00;8.93;;;7.50;;
14381;SDS011;7275;50.328;8.720;2023-12-07T05:09:30;8.33;;;7.03;;
14381;SDS011;7275;50.328;8.720;2023-12-07T05:11:58;12.00;;;7.10;;
14381;SDS011;7275;50.328;8.720;2023-12-07T05:14:25;8.77;;;7.57;;
14381;SDS011;7275;50.328;8.720;2023-12-07T05:16:53;11.00;;;7.83;;
14381;SDS011;7275;50.328;8.720;2023-12-07T05:19:23;10.50;;;8.53;;
14381;SDS011;7275;50.328;8.720;2023-12-07T05:21:51;11.50;;;8.47;;
14381;SDS011;7275;50.328;8.720;2023-12-07T05:24:19;10.33;;;7.90;;
14381;SDS011;7275;50.328;8.720;2023-12-07T05:26:47;11.93;;;8.70;;
14381;SDS011;7275;50.328;8.720;2023-12-07T05:29:15;9.77;;;8.07;;
14381;SDS011;7275;50.328;8.720;2023-12-07T05:31:42;9.70;;;7.47;;
14381;SDS011;7275;50.328;8.720;2023-12-07T05:34:10;8.30;;;6.93;;
14381;SDS011;7275;50.328;8.720;2023-12-07T05:36:39;10.93;;;7.53;;
14381;SDS011;7275;50.328;8.720;2023-12-07T05:39:07;9.60;;;7.77;;
14381;SDS011;7275;50.328;8.720;2023-12-07T05:41:35;10.40;;;8.13;;
14381;SDS011;7275;50.328;8.720;2023-12-07T05:44:03;10.77;;;8.20;;
14381;SDS011;7275;50.328;8.720;2023-12-07T05:46:31;10.67;;;8.43;;
14381;SDS011;7275;50.328;8.720;2023-12-07T05:48:59;10.80;;;8.93;;
14381;SDS011;7275;50.328;8.720;2023-12-07T05:51:27;10.30;;;8.90;;
14381;SDS011;7275;50.328;8.720;2023-12-07T05:53:56;10.53;;;8.30;;
14381;SDS011;7275;50.328;8.720;2023-12-07T05:56:24;10.00;;;8.10;;
14381;SDS011;7275;50.328;8.720;2023-12-07T05:58:52;11.20;;;8.50;;
14381;SDS011;7275;50.328;8.720;2023-12-07T06:01:19;9.37;;;8.03;;
14381;SDS011;7275;50.328;8.720;2023-12-07T06:03:47;10.10;;;8.30;;
14381;SDS011;7275;50.328;8.720;2023-12-07T06:06:15;8.97;;;7.73;;
14381;SDS011;7275;50.328;8.720;2023-12-07T06:08:42;10.87;;;8.67;;
14381;SDS011;7275;50.328;8.720;2023-12-07T06:11:12;12.87;;;8.83;;
14381;SDS011;7275;50.328;8.720;2023-12-07T06:13:39;12.27;;;8.97;;
14381;SDS011;7275;50.328;8.720;2023-12-07T06:16:10;10.27;;;7.93;;
14381;SDS011;7275;50.328;8.720;2023-12-07T06:18:39;10.07;;;7.87;;
14381;SDS011;7275;50.328;8.720;2023-12-07T06:21:07;9.60;;;7.83;;
14381;SDS011;7275;50.328;8.720;2023-12-07T06:23:34;10.97;;;8.43;;
14381;SDS011;7275;50.328;8.720;2023-12-07T06:26:02;9.87;;;8.03;;
14381;SDS011;7275;50.328;8.720;2023-12-07T06:28:33;9.93;;;8.27;;
14381;SDS011;7275;50.328;8.720;2023-12-07T06:31:04;10.27;;;8.30;;
14381;SDS011;7275;50.328;8.720;2023-12-07T06:33:33;10.70;;;8.17;;
14381;SDS011;7275;50.328;8.720;2023-12-07T06:36:01;9.43;;;8.43;;
14381;SDS011;7275;50.328;8.720;2023-12-07T06:38:29;11.00;;;8.17;;
14381;SDS011;7275;50.328;8.720;2023-12-07T06:40:57;10.00;;;8.03;;
14381;SDS011;7275;50.328;8.720;2023-12-07T06:43:24;10.97;;;8.23;;
14381;SDS011;7275;50.328;8.720;2023-12-07T06:45:53;9.07;;;7.70;;
14381;SDS011;7275;50.328;8.720;2023-12-07T06:48:21;8.73;;;7.40;;
14381;SDS011;7275;50.328;8.720;2023-12-07T06:50:48;9.10;;;7.50;;
14381;SDS011;7275;50.328;8.720;2023-12-07T06:53:16;10.00;;;7.60;;
14381;SDS011;7275;50.328;8.720;2023-12-07T06:55:44;8.50;;;7.50;;
14381;SDS011;7275;50.328;8.720;2023-12-07T06:58:12;8.70;;;7.10;;
14381;SDS011;7275;50.328;8.720;2023-12-07T07:00:40;9.27;;;7.20;;
14381;SDS011;7275;50.328;8.720;2023-12-07T07:03:09;10.77;;;8.13;;
14381;SDS011;7275;50.328;8.720;2023-12-07T07:05:36;10.37;;;8.03;;
14381;SDS011;7275;50.328;8.720;2023-12-07T07:08:04;9.50;;;7.73;;
14381;SDS011;7275;50.328;8.720;2023-12-07T07:10:33;10.63;;;7.57;;
14381;SDS011;7275;50.328;8.720;2023-12-07T07:13:01;10.70;;;8.30;;
14381;SDS011;7275;50.328;8.720;2023-12-07T07:15:30;12.07;;;8.50;;
14381;SDS011;7275;50.328;8.720;2023-12-07T07:17:58;11.50;;;9.30;;
14381;SDS011;7275;50.328;8.720;2023-12-07T07:20:27;13.17;;;10.07;;
14381;SDS011;7275;50.328;8.720;2023-12-07T07:22:54;14.23;;;10.20;;
14381;SDS011;7275;50.328;8.720;2023-12-07T07:25:22;13.37;;;10.67;;
14381;SDS011;7275;50.328;8.720;2023-12-07T07:27:50;12.97;;;10.40;;
14381;SDS011;7275;50.328;8.720;2023-12-07T07:30:18;13.63;;;11.17;;
14381;SDS011;7275;50.328;8.720;2023-12-07T07:32:46;12.20;;;10.27;;
14381;SDS011;7275;50.328;8.720;2023-12-07T07:35:15;13.83;;;10.83;;
14381;SDS011;7275;50.328;8.720;2023-12-07T07:37:44;12.47;;;10.43;;
14381;SDS011;7275;50.328;8.720;2023-12-07T07:40:12;14.27;;;10.30;;
14381;SDS011;7275;50.328;8.720;2023-12-07T07:42:40;14.80;;;10.63;;
14381;SDS011;7275;50.328;8.720;2023-12-07T07:45:09;13.27;;;9.80;;
14381;SDS011;7275;50.328;8.720;2023-12-07T07:47:37;14.07;;;10.30;;
14381;SDS011;7275;50.328;8.720;2023-12-07T07:50:05;14.23;;;10.43;;
14381;SDS011;7275;50.328;8.720;2023-12-07T07:52:33;13.27;;;10.50;;
14381;SDS011;7275;50.328;8.720;2023-12-07T07:55:03;16.23;;;11.20;;
14381;SDS011;7275;50.328;8.720;2023-12-07T07:57:32;13.77;;;10.70;;
14381;SDS011;7275;50.328;8.720;2023-12-07T07:59:59;14.27;;;10.73;;
14381;SDS011;7275;50.328;8.720;2023-12-07T08:02:27;13.20;;;10.93;;
14381;SDS011;7275;50.328;8.720;2023-12-07T08:04:55;14.27;;;11.73;;
14381;SDS011;7275;50.328;8.720;2023-12-07T08:07:22;19.37;;;14.17;;
14381;SDS011;7275;50.328;8.720;2023-12-07T08:09:50;27.53;;;15.73;;
14381;SDS011;7275;50.328;8.720;2023-12-07T08:12:20;26.33;;;15.70;;
14381;SDS011;7275;50.328;8.720;2023-12-07T08:14:49;43.57;;;16.77;;
14381;SDS011;7275;50.328;8.720;2023-12-07T08:17:16;37.13;;;17.30;;
14381;SDS011;7275;50.328;8.720;2023-12-07T08:19:45;44.00;;;18.23;;
14381;SDS011;7275;50.328;8.720;2023-12-07T08:22:13;54.83;;;18.13;;
14381;SDS011;7275;50.328;8.720;2023-12-07T08:24:41;117.87;;;21.17;;
14381;SDS011;7275;50.328;8.720;2023-12-07T08:27:10;48.47;;;17.53;;
14381;SDS011;7275;50.328;8.720;2023-12-07T08:29:39;48.77;;;17.37;;
14381;SDS011;7275;50.328;8.720;2023-12-07T08:32:07;60.50;;;17.20;;
14381;SDS011;7275;50.328;8.720;2023-12-07T08:34:35;56.20;;;17.53;;
14381;SDS011;7275;50.328;8.720;2023-12-07T08:37:03;42.63;;;17.50;;
14381;SDS011;7275;50.328;8.720;2023-12-07T08:39:31;43.20;;;18.20;;
14381;SDS011;7275;50.328;8.720;2023-12-07T08:41:59;71.40;;;18.90;;
14381;SDS011;7275;50.328;8.720;2023-12-07T08:44:27;116.53;;;19.07;;
14381;SDS011;7275;50.328;8.720;2023-12-07T08:46:56;57.80;;;18.37;;
14381;SDS011;7275;50.328;8.720;2023-12-07T08:49:24;91.33;;;20.00;;
14381;SDS011;7275;50.328;8.720;2023-12-07T08:51:52;66.43;;;18.93;;
14381;SDS011;7275;50.328;8.720;2023-12-07T08:54:39;41.13;;;19.00;;
14381;SDS011;7275;50.328;8.720;2023-12-07T08:57:07;41.30;;;17.77;;
14381;SDS011;7275;50.328;8.720;2023-12-07T08:59:35;49.53;;;19.37;;
14381;SDS011;7275;50.328;8.720;2023-12-07T09:02:04;55.00;;;17.67;;
14381;SDS011;7275;50.328;8.720;2023-12-07T09:04:32;51.17;;;19.17;;
14381;SDS011;7275;50.328;8.720;2023-12-07T09:07:00;45.13;;;19.00;;
14381;SDS011;7275;50.328;8.720;2023-12-07T09:09:28;43.83;;;19.00;;
14381;SDS011;7275;50.328;8.720;2023-12-07T09:11:55;57.83;;;18.83;;
14381;SDS011;7275;50.328;8.720;2023-12-07T09:14:23;36.63;;;19.03;;
14381;SDS011;7275;50.328;8.720;2023-12-07T09:16:52;45.67;;;19.67;;
14381;SDS011;7275;50.328;8.720;2023-12-07T09:19:22;41.93;;;18.80;;
14381;SDS011;7275;50.328;8.720;2023-12-07T09:21:49;37.93;;;19.50;;
14381;SDS011;7275;50.328;8.720;2023-12-07T09:24:17;35.23;;;19.77;;
14381;SDS011;7275;50.328;8.720;2023-12-07T09:26:46;65.40;;;20.73;;
14381;SDS011;7275;50.328;8.720;2023-12-07T09:29:14;42.77;;;18.80;;
14381;SDS011;7275;50.328;8.720;2023-12-07T09:31:41;35.70;;;18.60;;
14381;SDS011;7275;50.328;8.720;2023-12-07T09:34:09;39.63;;;19.87;;
14381;SDS011;7275;50.328;8.720;2023-12-07T09:36:40;42.73;;;20.13;;
14381;SDS011;7275;50.328;8.720;2023-12-07T09:39:07;40.30;;;19.83;;
14381;SDS011;7275;50.328;8.720;2023-12-07T09:41:36;36.13;;;18.73;;
14381;SDS011;7275;50.328;8.720;2023-12-07T09:44:05;54.20;;;18.30;;
14381;SDS011;7275;50.328;8.720;2023-12-07T09:46:32;35.33;;;19.17;;
14381;SDS011;7275;50.328;8.720;2023-12-07T09:49:01;33.47;;;19.17;;
14381;SDS011;7275;50.328;8.720;2023-12-07T09:51:28;34.67;;;19.57;;
14381;SDS011;7275;50.328;8.720;2023-12-07T09:54:00;54.63;;;20.87;;
14381;SDS011;7275;50.328;8.720;2023-12-07T09:56:29;49.37;;;21.27;;
14381;SDS011;7275;50.328;8.720;2023-12-07T09:58:56;43.83;;;22.03;;
14381;SDS011;7275;50.328;8.720;2023-12-07T10:01:27;55.43;;;22.10;;
14381;SDS011;7275;50.328;8.720;2023-12-07T10:06:45;31.83;;;19.57;;
14381;SDS011;7275;50.328;8.720;2023-12-07T10:09:15;37.80;;;20.20;;
14381;SDS011;7275;50.328;8.720;2023-12-07T10:12:01;44.13;;;20.80;;
14381;SDS011;7275;50.328;8.720;2023-12-07T10:14:29;39.23;;;20.47;;
14381;SDS011;7275;50.328;8.720;2023-12-07T10:16:57;27.00;;;20.37;;
14381;SDS011;7275;50.328;8.720;2023-12-07T10:19:25;35.50;;;22.50;;
14381;SDS011;7275;50.328;8.720;2023-12-07T10:21:58;33.53;;;22.10;;
14381;SDS011;7275;50.328;8.720;2023-12-07T10:24:28;63.63;;;21.73;;
14381;SDS011;7275;50.328;8.720;2023-12-07T10:26:57;70.43;;;21.47;;
14381;SDS011;7275;50.328;8.720;2023-12-07T10:29:29;31.00;;;21.77;;
14381;SDS011;7275;50.328;8.720;2023-12-07T10:31:59;38.33;;;22.00;;
14381;SDS011;7275;50.328;8.720;2023-12-07T10:34:29;36.97;;;20.60;;
14381;SDS011;7275;50.328;8.720;2023-12-07T10:36:57;40.67;;;20.30;;
14381;SDS011;7275;50.328;8.720;2023-12-07T10:39:24;43.63;;;21.77;;
14381;SDS011;7275;50.328;8.720;2023-12-07T10:42:02;43.33;;;21.53;;
14381;SDS011;7275;50.328;8.720;2023-12-07T10:44:36;57.93;;;21.17;;
14381;SDS011;7275;50.328;8.720;2023-12-07T10:47:08;44.50;;;21.23;;
14381;SDS011;7275;50.328;8.720;2023-12-07T10:49:38;47.10;;;21.63;;
14381;SDS011;7275;50.328;8.720;2023-12-07T10:52:13;42.23;;;21.43;;
14381;SDS011;7275;50.328;8.720;2023-12-07T10:54:43;54.90;;;21.63;;
14381;SDS011;7275;50.328;8.720;2023-12-07T10:57:23;52.43;;;21.30;;
14381;SDS011;7275;50.328;8.720;2023-12-07T10:59:52;53.03;;;20.37;;
14381;SDS011;7275;50.328;8.720;2023-12-07T11:02:22;69.83;;;21.60;;
14381;SDS011;7275;50.328;8.720;2023-12-07T11:04:52;34.03;;;21.17;;
14381;SDS011;7275;50.328;8.720;2023-12-07T11:07:24;81.77;;;21.60;;
14381;SDS011;7275;50.328;8.720;2023-12-07T11:09:57;50.87;;;20.27;;
14381;SDS011;7275;50.328;8.720;2023-12-07T11:12:33;46.67;;;20.43;;
14381;SDS011;7275;50.328;8.720;2023-12-07T11:15:08;34.60;;;20.93;;
14381;SDS011;7275;50.328;8.720;2023-12-07T11:17:52;37.73;;;19.80;;
14381;SDS011;7275;50.328;8.720;2023-12-07T11:20:31;42.27;;;19.40;;
14381;SDS011;7275;50.328;8.720;2023-12-07T11:23:06;42.07;;;20.20;;
14381;SDS011;7275;50.328;8.720;2023-12-07T11:25:34;37.00;;;19.40;;
14381;SDS011;7275;50.328;8.720;2023-12-07T11:28:03;51.23;;;21.27;;
14381;SDS011;7275;50.328;8.720;2023-12-07T11:30:33;44.33;;;20.57;;
14381;SDS011;7275;50.328;8.720;2023-12-07T11:33:03;52.43;;;19.40;;
14381;SDS011;7275;50.328;8.720;2023-12-07T11:35:31;45.10;;;20.83;;
14381;SDS011;7275;50.328;8.720;2023-12-07T11:38:00;55.30;;;20.20;;
14381;SDS011;7275;50.328;8.720;2023-12-07T11:40:34;76.07;;;20.93;;
14381;SDS011;7275;50.328;8.720;2023-12-07T11:43:04;49.30;;;20.33;;
14381;SDS011;7275;50.328;8.720;2023-12-07T11:45:36;78.33;;;22.50;;
14381;SDS011;7275;50.328;8.720;2023-12-07T11:48:08;61.83;;;21.87;;
14381;SDS011;7275;50.328;8.720;2023-12-07T11:50:59;68.80;;;23.20;;
14381;SDS011;7275;50.328;8.720;2023-12-07T11:53:28;89.57;;;22.07;;
14381;SDS011;7275;50.328;8.720;2023-12-07T11:55:57;32.73;;;19.63;;
14381;SDS011;7275;50.328;8.720;2023-12-07T11:58:27;30.77;;;20.63;;
14381;SDS011;7275;50.328;8.720;2023-12-07T12:00:55;54.73;;;20.63;;
14381;SDS011;7275;50.328;8.720;2023-12-07T12:03:24;40.50;;;20.77;;
14381;SDS011;7275;50.328;8.720;2023-12-07T12:05:52;48.50;;;21.47;;
14381;SDS011;7275;50.328;8.720;2023-12-07T12:08:21;40.10;;;22.23;;
14381;SDS011;7275;50.328;8.720;2023-12-07T12:10:50;44.43;;;22.30;;
14381;SDS011;7275;50.328;8.720;2023-12-07T12:13:19;73.50;;;22.90;;
14381;SDS011;7275;50.328;8.720;2023-12-07T12:15:54;39.37;;;21.93;;
14381;SDS011;7275;50.328;8.720;2023-12-07T12:18:23;33.67;;;21.60;;
14381;SDS011;7275;50.328;8.720;2023-12-07T12:20:52;35.57;;;23.10;;
14381;SDS011;7275;50.328;8.720;2023-12-07T12:23:20;72.10;;;23.23;;
14381;SDS011;7275;50.328;8.720;2023-12-07T12:25:48;56.43;;;23.60;;
14381;SDS011;7275;50.328;8.720;2023-12-07T12:28:16;34.83;;;22.60;;
14381;SDS011;7275;50.328;8.720;2023-12-07T12:30:48;56.17;;;23.37;;
14381;SDS011;7275;50.328;8.720;2023-12-07T12:33:19;37.63;;;21.43;;
14381;SDS011;7275;50.328;8.720;2023-12-07T12:35:47;33.13;;;21.50;;
14381;SDS011;7275;50.328;8.720;2023-12-07T12:38:29;33.53;;;20.40;;
14381;SDS011;7275;50.328;8.720;2023-12-07T12:41:08;42.07;;;19.83;;
14381;SDS011;7275;50.328;8.720;2023-12-07T12:43:36;52.17;;;19.23;;
14381;SDS011;7275;50.328;8.720;2023-12-07T12:46:04;36.43;;;19.37;;
14381;SDS011;7275;50.328;8.720;2023-12-07T12:48:34;28.43;;;19.60;;
14381;SDS011;7275;50.328;8.720;2023-12-07T12:51:07;46.73;;;20.20;;
14381;SDS011;7275;50.328;8.720;2023-12-07T12:53:35;36.40;;;20.37;;
14381;SDS011;7275;50.328;8.720;2023-12-07T12:56:03;48.20;;;19.93;;
14381;SDS011;7275;50.328;8.720;2023-12-07T12:58:31;37.83;;;20.43;;
14381;SDS011;7275;50.328;8.720;2023-12-07T13:00:59;60.07;;;20.87;;
14381;SDS011;7275;50.328;8.720;2023-12-07T13:03:29;37.60;;;20.13;;
14381;SDS011;7275;50.328;8.720;2023-12-07T13:05:59;50.37;;;20.30;;
14381;SDS011;7275;50.328;8.720;2023-12-07T13:08:29;49.77;;;21.23;;
14381;SDS011;7275;50.328;8.720;2023-12-07T13:10:59;58.00;;;20.90;;
14381;SDS011;7275;50.328;8.720;2023-12-07T13:13:27;48.17;;;19.57;;
14381;SDS011;7275;50.328;8.720;2023-12-07T13:15:56;64.50;;;20.50;;
14381;SDS011;7275;50.328;8.720;2023-12-07T13:18:23;34.67;;;20.87;;
14381;SDS011;7275;50.328;8.720;2023-12-07T13:20:51;59.30;;;19.83;;
14381;SDS011;7275;50.328;8.720;2023-12-07T13:23:23;37.97;;;20.93;;
14381;SDS011;7275;50.328;8.720;2023-12-07T13:25:51;40.27;;;20.10;;
14381;SDS011;7275;50.328;8.720;2023-12-07T13:28:19;39.13;;;20.50;;
14381;SDS011;7275;50.328;8.720;2023-12-07T13:30:46;36.87;;;20.60;;
14381;SDS011;7275;50.328;8.720;2023-12-07T13:33:14;31.83;;;20.17;;
14381;SDS011;7275;50.328;8.720;2023-12-07T13:35:53;33.80;;;19.37;;
14381;SDS011;7275;50.328;8.720;2023-12-07T13:38:22;30.30;;;19.83;;
14381;SDS011;7275;50.328;8.720;2023-12-07T13:40:51;34.43;;;21.53;;
14381;SDS011;7275;50.328;8.720;2023-12-07T13:43:18;29.33;;;19.17;;
14381;SDS011;7275;50.328;8.720;2023-12-07T13:45:47;31.73;;;19.97;;
14381;SDS011;7275;50.328;8.720;2023-12-07T13:48:15;32.00;;;20.60;;
14381;SDS011;7275;50.328;8.720;2023-12-07T13:50:43;31.57;;;20.70;;
14381;SDS011;7275;50.328;8.720;2023-12-07T13:53:11;29.87;;;20.33;;
14381;SDS011;7275;50.328;8.720;2023-12-07T13:55:40;31.30;;;20.03;;
14381;SDS011;7275;50.328;8.720;2023-12-07T13:58:08;32.90;;;20.47;;
14381;SDS011;7275;50.328;8.720;2023-12-07T14:00:36;34.37;;;22.33;;
14381;SDS011;7275;50.328;8.720;2023-12-07T14:03:05;30.40;;;20.97;;
14381;SDS011;7275;50.328;8.720;2023-12-07T14:05:33;36.43;;;22.93;;
14381;SDS011;7275;50.328;8.720;2023-12-07T14:08:01;36.23;;;23.00;;
14381;SDS011;7275;50.328;8.720;2023-12-07T14:10:29;32.83;;;21.83;;
14381;SDS011;7275;50.328;8.720;2023-12-07T14:12:59;34.27;;;21.93;;
14381;SDS011;7275;50.328;8.720;2023-12-07T14:15:27;32.93;;;22.30;;
14381;SDS011;7275;50.328;8.720;2023-12-07T14:18:10;31.67;;;20.97;;
14381;SDS011;7275;50.328;8.720;2023-12-07T14:20:40;23.97;;;17.97;;
14381;SDS011;7275;50.328;8.720;2023-12-07T14:23:27;23.83;;;17.77;;
14381;SDS011;7275;50.328;8.720;2023-12-07T14:25:55;24.10;;;17.97;;
14381;SDS011;7275;50.328;8.720;2023-12-07T14:28:30;24.17;;;18.10;;
14381;SDS011;7275;50.328;8.720;2023-12-07T14:31:00;26.10;;;18.10;;
14381;SDS011;7275;50.328;8.720;2023-12-07T14:33:28;23.90;;;16.97;;
14381;SDS011;7275;50.328;8.720;2023-12-07T14:35:56;29.27;;;20.03;;
14381;SDS011;7275;50.328;8.720;2023-12-07T14:38:24;31.00;;;20.37;;
14381;SDS011;7275;50.328;8.720;2023-12-07T14:40:51;31.83;;;20.73;;
14381;SDS011;7275;50.328;8.720;2023-12-07T14:43:21;33.53;;;22.10;;
14381;SDS011;7275;50.328;8.720;2023-12-07T14:45:50;34.37;;;22.07;;
14381;SDS011;7275;50.328;8.720;2023-12-07T14:48:18;32.60;;;22.20;;
14381;SDS011;7275;50.328;8.720;2023-12-07T14:50:46;33.77;;;22.40;;
14381;SDS011;7275;50.328;8.720;2023-12-07T14:53:14;37.07;;;22.03;;
14381;SDS011;7275;50.328;8.720;2023-12-07T14:55:41;36.27;;;23.00;;
14381;SDS011;7275;50.328;8.720;2023-12-07T14:58:09;33.33;;;22.63;;
14381;SDS011;7275;50.328;8.720;2023-12-07T15:00:37;33.50;;;22.77;;
14381;SDS011;7275;50.328;8.720;2023-12-07T15:03:08;31.27;;;21.23;;